sensor_id;sensor_type;location;lat;lon;timestamp;P1;durP1;ratioP1;P2;durP2;ratioP2
1691;SDS011;843;52.054;8.552;2022-08-19T00:02:13;9.10;;;6.70;;
1691;SDS011;843;52.054;8.552;2022-08-19T00:04:40;10.07;;;6.70;;
1691;SDS011;843;52.054;8.552;2022-08-19T00:07:07;10.23;;;7.80;;
1691;SDS011;843;52.054;8.552;2022-08-19T00:09:34;10.57;;;6.70;;
1691;SDS011;843;52.054;8.552;2022-08-19T00:12:01;8.00;;;6.93;;
1691;SDS011;843;52.054;8.552;2022-08-19T00:14:28;8.60;;;6.70;;
1691;SDS011;843;52.054;8.552;2022-08-19T00:16:57;11.40;;;7.40;;
1691;SDS011;843;52.054;8.552;2022-08-19T00:19:25;9.83;;;7.53;;
1691;SDS011;843;52.054;8.552;2022-08-19T00:21:51;10.10;;;8.07;;
1691;SDS011;843;52.054;8.552;2022-08-19T00:24:19;15.27;;;8.20;;
1691;SDS011;843;52.054;8.552;2022-08-19T00:26:46;11.33;;;7.30;;
1691;SDS011;843;52.054;8.552;2022-08-19T00:29:14;8.93;;;8.03;;
1691;SDS011;843;52.054;8.552;2022-08-19T00:31:42;8.47;;;7.20;;
1691;SDS011;843;52.054;8.552;2022-08-19T00:34:12;9.07;;;7.80;;
1691;SDS011;843;52.054;8.552;2022-08-19T00:36:39;11.70;;;8.00;;
1691;SDS011;843;52.054;8.552;2022-08-19T00:39:07;12.60;;;8.20;;
1691;SDS011;843;52.054;8.552;2022-08-19T00:41:34;11.13;;;8.97;;
1691;SDS011;843;52.054;8.552;2022-08-19T00:44:01;10.17;;;8.43;;
1691;SDS011;843;52.054;8.552;2022-08-19T00:46:30;12.40;;;9.30;;
1691;SDS011;843;52.054;8.552;2022-08-19T00:48:57;10.63;;;9.33;;
1691;SDS011;843;52.054;8.552;2022-08-19T00:51:27;12.20;;;9.70;;
1691;SDS011;843;52.054;8.552;2022-08-19T00:53:55;10.13;;;9.13;;
1691;SDS011;843;52.054;8.552;2022-08-19T00:56:23;17.97;;;9.53;;
1691;SDS011;843;52.054;8.552;2022-08-19T00:58:51;13.53;;;9.77;;
1691;SDS011;843;52.054;8.552;2022-08-19T01:01:18;11.37;;;8.63;;
1691;SDS011;843;52.054;8.552;2022-08-19T01:03:45;13.33;;;9.37;;
1691;SDS011;843;52.054;8.552;2022-08-19T01:06:12;11.07;;;8.57;;
1691;SDS011;843;52.054;8.552;2022-08-19T01:08:40;12.67;;;9.53;;
1691;SDS011;843;52.054;8.552;2022-08-19T01:11:07;15.00;;;10.10;;
1691;SDS011;843;52.054;8.552;2022-08-19T01:13:34;11.37;;;10.23;;
1691;SDS011;843;52.054;8.552;2022-08-19T01:16:03;11.93;;;9.90;;
1691;SDS011;843;52.054;8.552;2022-08-19T01:18:32;11.60;;;8.87;;
1691;SDS011;843;52.054;8.552;2022-08-19T01:21:00;10.17;;;8.73;;
1691;SDS011;843;52.054;8.552;2022-08-19T01:23:33;11.20;;;9.40;;
1691;SDS011;843;52.054;8.552;2022-08-19T01:26:10;10.60;;;9.60;;
1691;SDS011;843;52.054;8.552;2022-08-19T01:28:38;12.07;;;9.30;;
1691;SDS011;843;52.054;8.552;2022-08-19T01:31:08;11.90;;;9.40;;
1691;SDS011;843;52.054;8.552;2022-08-19T01:33:39;11.90;;;10.00;;
1691;SDS011;843;52.054;8.552;2022-08-19T01:36:07;13.33;;;9.90;;
1691;SDS011;843;52.054;8.552;2022-08-19T01:38:38;12.40;;;9.73;;
1691;SDS011;843;52.054;8.552;2022-08-19T01:41:06;18.13;;;10.43;;
1691;SDS011;843;52.054;8.552;2022-08-19T01:43:33;13.93;;;11.13;;
1691;SDS011;843;52.054;8.552;2022-08-19T01:46:00;14.53;;;10.30;;
1691;SDS011;843;52.054;8.552;2022-08-19T01:48:32;13.80;;;10.47;;
1691;SDS011;843;52.054;8.552;2022-08-19T01:50:59;12.00;;;9.40;;
1691;SDS011;843;52.054;8.552;2022-08-19T01:53:26;12.50;;;9.93;;
1691;SDS011;843;52.054;8.552;2022-08-19T01:55:55;11.70;;;9.80;;
1691;SDS011;843;52.054;8.552;2022-08-19T01:58:24;13.07;;;9.73;;
1691;SDS011;843;52.054;8.552;2022-08-19T02:00:55;13.40;;;10.53;;
1691;SDS011;843;52.054;8.552;2022-08-19T02:03:22;12.23;;;10.50;;
1691;SDS011;843;52.054;8.552;2022-08-19T02:05:53;11.50;;;10.00;;
1691;SDS011;843;52.054;8.552;2022-08-19T02:08:20;13.43;;;10.43;;
1691;SDS011;843;52.054;8.552;2022-08-19T02:10:47;17.67;;;10.90;;
1691;SDS011;843;52.054;8.552;2022-08-19T02:13:16;16.70;;;11.87;;
1691;SDS011;843;52.054;8.552;2022-08-19T02:15:43;15.70;;;12.97;;
1691;SDS011;843;52.054;8.552;2022-08-19T02:18:10;14.00;;;11.57;;
1691;SDS011;843;52.054;8.552;2022-08-19T02:20:37;15.20;;;12.50;;
1691;SDS011;843;52.054;8.552;2022-08-19T02:23:04;13.50;;;12.10;;
1691;SDS011;843;52.054;8.552;2022-08-19T02:25:31;15.90;;;11.80;;
1691;SDS011;843;52.054;8.552;2022-08-19T02:27:58;14.43;;;12.93;;
1691;SDS011;843;52.054;8.552;2022-08-19T02:30:26;15.20;;;11.70;;
1691;SDS011;843;52.054;8.552;2022-08-19T02:32:53;15.33;;;13.17;;
1691;SDS011;843;52.054;8.552;2022-08-19T02:35:20;19.60;;;12.27;;
1691;SDS011;843;52.054;8.552;2022-08-19T02:37:47;14.27;;;12.80;;
1691;SDS011;843;52.054;8.552;2022-08-19T02:40:31;13.67;;;12.20;;
1691;SDS011;843;52.054;8.552;2022-08-19T02:42:59;20.13;;;12.40;;
1691;SDS011;843;52.054;8.552;2022-08-19T02:45:30;15.00;;;12.30;;
1691;SDS011;843;52.054;8.552;2022-08-19T02:47:58;15.90;;;10.90;;
1691;SDS011;843;52.054;8.552;2022-08-19T02:50:24;15.53;;;13.77;;
1691;SDS011;843;52.054;8.552;2022-08-19T02:52:51;17.20;;;14.10;;
1691;SDS011;843;52.054;8.552;2022-08-19T02:55:18;17.50;;;13.23;;
1691;SDS011;843;52.054;8.552;2022-08-19T02:57:45;21.47;;;15.03;;
1691;SDS011;843;52.054;8.552;2022-08-19T03:00:12;19.47;;;14.90;;
1691;SDS011;843;52.054;8.552;2022-08-19T03:02:41;15.00;;;13.30;;
1691;SDS011;843;52.054;8.552;2022-08-19T03:05:08;17.33;;;14.83;;
1691;SDS011;843;52.054;8.552;2022-08-19T03:07:36;18.77;;;15.03;;
1691;SDS011;843;52.054;8.552;2022-08-19T03:10:03;18.97;;;14.80;;
1691;SDS011;843;52.054;8.552;2022-08-19T03:12:30;18.60;;;15.50;;
1691;SDS011;843;52.054;8.552;2022-08-19T03:14:57;20.97;;;16.40;;
1691;SDS011;843;52.054;8.552;2022-08-19T03:17:24;25.03;;;15.63;;
1691;SDS011;843;52.054;8.552;2022-08-19T03:19:52;15.33;;;13.73;;
1691;SDS011;843;52.054;8.552;2022-08-19T03:22:19;20.80;;;15.60;;
1691;SDS011;843;52.054;8.552;2022-08-19T03:24:45;16.00;;;14.00;;
1691;SDS011;843;52.054;8.552;2022-08-19T03:27:12;21.10;;;15.20;;
1691;SDS011;843;52.054;8.552;2022-08-19T03:29:39;18.70;;;14.70;;
1691;SDS011;843;52.054;8.552;2022-08-19T03:32:06;18.20;;;14.40;;
1691;SDS011;843;52.054;8.552;2022-08-19T03:34:33;18.57;;;14.40;;
1691;SDS011;843;52.054;8.552;2022-08-19T03:37:04;17.90;;;15.17;;
1691;SDS011;843;52.054;8.552;2022-08-19T03:39:33;22.20;;;15.73;;
1691;SDS011;843;52.054;8.552;2022-08-19T03:42:00;17.30;;;14.57;;
1691;SDS011;843;52.054;8.552;2022-08-19T03:44:27;24.27;;;17.63;;
1691;SDS011;843;52.054;8.552;2022-08-19T03:46:56;24.80;;;17.00;;
1691;SDS011;843;52.054;8.552;2022-08-19T03:49:24;20.40;;;15.93;;
1691;SDS011;843;52.054;8.552;2022-08-19T03:51:53;16.27;;;14.50;;
1691;SDS011;843;52.054;8.552;2022-08-19T03:54:22;18.50;;;15.07;;
1691;SDS011;843;52.054;8.552;2022-08-19T03:56:51;21.57;;;16.50;;
1691;SDS011;843;52.054;8.552;2022-08-19T03:59:20;24.50;;;18.03;;
1691;SDS011;843;52.054;8.552;2022-08-19T04:01:51;19.30;;;17.13;;
1691;SDS011;843;52.054;8.552;2022-08-19T04:04:18;21.43;;;18.50;;
1691;SDS011;843;52.054;8.552;2022-08-19T04:06:44;21.37;;;16.67;;
1691;SDS011;843;52.054;8.552;2022-08-19T04:09:12;22.00;;;17.63;;
1691;SDS011;843;52.054;8.552;2022-08-19T04:11:42;25.07;;;16.97;;
1691;SDS011;843;52.054;8.552;2022-08-19T04:14:13;22.67;;;17.30;;
1691;SDS011;843;52.054;8.552;2022-08-19T04:16:41;22.10;;;18.77;;
1691;SDS011;843;52.054;8.552;2022-08-19T04:19:09;23.77;;;17.93;;
1691;SDS011;843;52.054;8.552;2022-08-19T04:21:36;26.60;;;18.70;;
1691;SDS011;843;52.054;8.552;2022-08-19T04:24:03;27.70;;;19.37;;
1691;SDS011;843;52.054;8.552;2022-08-19T04:26:31;23.40;;;18.83;;
1691;SDS011;843;52.054;8.552;2022-08-19T04:29:01;26.17;;;17.00;;
1691;SDS011;843;52.054;8.552;2022-08-19T04:31:31;22.07;;;17.73;;
1691;SDS011;843;52.054;8.552;2022-08-19T04:34:00;20.13;;;16.57;;
1691;SDS011;843;52.054;8.552;2022-08-19T04:36:28;19.10;;;15.20;;
1691;SDS011;843;52.054;8.552;2022-08-19T04:38:58;21.33;;;16.33;;
1691;SDS011;843;52.054;8.552;2022-08-19T04:41:25;20.77;;;14.63;;
1691;SDS011;843;52.054;8.552;2022-08-19T04:44:23;17.30;;;14.27;;
1691;SDS011;843;52.054;8.552;2022-08-19T04:46:50;18.30;;;14.17;;
1691;SDS011;843;52.054;8.552;2022-08-19T04:49:18;18.40;;;14.13;;
1691;SDS011;843;52.054;8.552;2022-08-19T04:51:47;18.07;;;12.20;;
1691;SDS011;843;52.054;8.552;2022-08-19T04:54:15;21.93;;;14.50;;
1691;SDS011;843;52.054;8.552;2022-08-19T04:56:42;18.77;;;14.37;;
1691;SDS011;843;52.054;8.552;2022-08-19T04:59:09;18.90;;;13.40;;
1691;SDS011;843;52.054;8.552;2022-08-19T05:01:38;16.83;;;15.10;;
1691;SDS011;843;52.054;8.552;2022-08-19T05:04:05;16.03;;;13.07;;
1691;SDS011;843;52.054;8.552;2022-08-19T05:06:33;17.07;;;13.03;;
1691;SDS011;843;52.054;8.552;2022-08-19T05:09:00;18.07;;;13.50;;
1691;SDS011;843;52.054;8.552;2022-08-19T05:11:27;19.17;;;12.17;;
1691;SDS011;843;52.054;8.552;2022-08-19T05:13:56;12.97;;;11.53;;
1691;SDS011;843;52.054;8.552;2022-08-19T05:16:24;12.53;;;11.30;;
1691;SDS011;843;52.054;8.552;2022-08-19T05:18:54;16.07;;;11.43;;
1691;SDS011;843;52.054;8.552;2022-08-19T05:21:39;16.20;;;10.77;;
1691;SDS011;843;52.054;8.552;2022-08-19T05:24:25;12.50;;;9.27;;
1691;SDS011;843;52.054;8.552;2022-08-19T05:26:52;12.33;;;9.90;;
1691;SDS011;843;52.054;8.552;2022-08-19T05:29:21;12.73;;;10.00;;
1691;SDS011;843;52.054;8.552;2022-08-19T05:31:49;10.67;;;9.07;;
1691;SDS011;843;52.054;8.552;2022-08-19T05:34:19;9.57;;;8.13;;
1691;SDS011;843;52.054;8.552;2022-08-19T05:36:47;11.87;;;8.80;;
1691;SDS011;843;52.054;8.552;2022-08-19T05:39:16;10.63;;;8.83;;
1691;SDS011;843;52.054;8.552;2022-08-19T05:41:44;13.70;;;9.37;;
1691;SDS011;843;52.054;8.552;2022-08-19T05:44:12;12.17;;;8.67;;
1691;SDS011;843;52.054;8.552;2022-08-19T05:46:39;10.27;;;8.10;;
1691;SDS011;843;52.054;8.552;2022-08-19T05:49:06;9.40;;;8.07;;
1691;SDS011;843;52.054;8.552;2022-08-19T05:51:35;9.30;;;8.40;;
1691;SDS011;843;52.054;8.552;2022-08-19T05:54:03;9.50;;;8.60;;
1691;SDS011;843;52.054;8.552;2022-08-19T05:56:31;10.10;;;8.77;;
1691;SDS011;843;52.054;8.552;2022-08-19T05:59:00;9.43;;;8.40;;
1691;SDS011;843;52.054;8.552;2022-08-19T06:01:27;9.77;;;8.87;;
1691;SDS011;843;52.054;8.552;2022-08-19T06:03:53;10.67;;;7.43;;
1691;SDS011;843;52.054;8.552;2022-08-19T06:06:21;9.90;;;8.80;;
1691;SDS011;843;52.054;8.552;2022-08-19T06:08:49;10.30;;;8.03;;
1691;SDS011;843;52.054;8.552;2022-08-19T06:11:17;9.47;;;8.23;;
1691;SDS011;843;52.054;8.552;2022-08-19T06:13:46;11.63;;;8.00;;
1691;SDS011;843;52.054;8.552;2022-08-19T06:16:14;9.47;;;8.50;;
1691;SDS011;843;52.054;8.552;2022-08-19T06:18:47;8.63;;;7.83;;
1691;SDS011;843;52.054;8.552;2022-08-19T06:21:16;8.43;;;7.17;;
1691;SDS011;843;52.054;8.552;2022-08-19T06:23:43;9.50;;;7.47;;
1691;SDS011;843;52.054;8.552;2022-08-19T06:26:12;8.00;;;7.20;;
1691;SDS011;843;52.054;8.552;2022-08-19T06:28:40;7.90;;;7.20;;
1691;SDS011;843;52.054;8.552;2022-08-19T06:31:12;9.47;;;7.47;;
1691;SDS011;843;52.054;8.552;2022-08-19T06:33:39;7.57;;;6.60;;
1691;SDS011;843;52.054;8.552;2022-08-19T06:36:07;6.47;;;5.87;;
1691;SDS011;843;52.054;8.552;2022-08-19T06:38:34;8.03;;;5.40;;
1691;SDS011;843;52.054;8.552;2022-08-19T06:41:02;8.07;;;6.57;;
1691;SDS011;843;52.054;8.552;2022-08-19T06:43:30;7.67;;;6.80;;
1691;SDS011;843;52.054;8.552;2022-08-19T06:45:57;7.10;;;4.93;;
1691;SDS011;843;52.054;8.552;2022-08-19T06:48:24;6.77;;;6.03;;
1691;SDS011;843;52.054;8.552;2022-08-19T06:50:51;6.90;;;6.13;;
1691;SDS011;843;52.054;8.552;2022-08-19T06:53:17;8.23;;;5.20;;
1691;SDS011;843;52.054;8.552;2022-08-19T06:55:45;8.40;;;6.07;;
1691;SDS011;843;52.054;8.552;2022-08-19T06:58:12;5.80;;;5.20;;
1691;SDS011;843;52.054;8.552;2022-08-19T07:00:40;6.57;;;5.73;;
1691;SDS011;843;52.054;8.552;2022-08-19T07:03:07;7.93;;;5.10;;
1691;SDS011;843;52.054;8.552;2022-08-19T07:05:37;8.33;;;6.20;;
1691;SDS011;843;52.054;8.552;2022-08-19T07:08:04;6.73;;;5.93;;
1691;SDS011;843;52.054;8.552;2022-08-19T07:10:32;6.20;;;5.60;;
1691;SDS011;843;52.054;8.552;2022-08-19T07:13:00;6.40;;;5.70;;
1691;SDS011;843;52.054;8.552;2022-08-19T07:15:27;6.33;;;5.23;;
1691;SDS011;843;52.054;8.552;2022-08-19T07:17:55;5.80;;;5.30;;
1691;SDS011;843;52.054;8.552;2022-08-19T07:20:22;7.50;;;6.43;;
1691;SDS011;843;52.054;8.552;2022-08-19T07:22:48;6.60;;;5.90;;
1691;SDS011;843;52.054;8.552;2022-08-19T07:25:15;7.67;;;5.23;;
1691;SDS011;843;52.054;8.552;2022-08-19T07:27:43;7.77;;;7.00;;
1691;SDS011;843;52.054;8.552;2022-08-19T07:30:11;7.80;;;6.30;;
1691;SDS011;843;52.054;8.552;2022-08-19T07:32:38;6.23;;;5.23;;
1691;SDS011;843;52.054;8.552;2022-08-19T07:35:07;9.07;;;6.17;;
1691;SDS011;843;52.054;8.552;2022-08-19T07:37:34;6.00;;;5.40;;
1691;SDS011;843;52.054;8.552;2022-08-19T07:40:02;7.83;;;5.30;;
1691;SDS011;843;52.054;8.552;2022-08-19T07:42:30;4.50;;;4.10;;
1691;SDS011;843;52.054;8.552;2022-08-19T07:44:56;6.13;;;4.90;;
1691;SDS011;843;52.054;8.552;2022-08-19T07:47:23;4.47;;;4.07;;
1691;SDS011;843;52.054;8.552;2022-08-19T07:49:52;6.57;;;4.70;;
1691;SDS011;843;52.054;8.552;2022-08-19T07:52:20;5.87;;;4.87;;
1691;SDS011;843;52.054;8.552;2022-08-19T07:54:47;5.47;;;4.97;;
1691;SDS011;843;52.054;8.552;2022-08-19T07:57:14;5.03;;;4.63;;
1691;SDS011;843;52.054;8.552;2022-08-19T07:59:41;5.80;;;4.43;;
1691;SDS011;843;52.054;8.552;2022-08-19T08:02:08;5.60;;;4.00;;
1691;SDS011;843;52.054;8.552;2022-08-19T08:04:35;4.63;;;4.23;;
1691;SDS011;843;52.054;8.552;2022-08-19T08:07:20;4.90;;;4.40;;
1691;SDS011;843;52.054;8.552;2022-08-19T08:10:06;5.10;;;4.00;;
1691;SDS011;843;52.054;8.552;2022-08-19T08:12:34;5.57;;;4.80;;
1691;SDS011;843;52.054;8.552;2022-08-19T08:15:07;6.20;;;4.50;;
1691;SDS011;843;52.054;8.552;2022-08-19T08:17:35;4.67;;;4.27;;
1691;SDS011;843;52.054;8.552;2022-08-19T08:20:04;4.67;;;3.67;;
1691;SDS011;843;52.054;8.552;2022-08-19T08:22:34;4.60;;;4.13;;
1691;SDS011;843;52.054;8.552;2022-08-19T08:25:19;5.93;;;3.70;;
1691;SDS011;843;52.054;8.552;2022-08-19T08:27:48;7.73;;;3.40;;
1691;SDS011;843;52.054;8.552;2022-08-19T08:30:15;5.10;;;3.33;;
1691;SDS011;843;52.054;8.552;2022-08-19T08:32:44;3.57;;;3.10;;
1691;SDS011;843;52.054;8.552;2022-08-19T08:35:11;3.97;;;3.57;;
1691;SDS011;843;52.054;8.552;2022-08-19T08:37:41;4.27;;;3.30;;
1691;SDS011;843;52.054;8.552;2022-08-19T08:40:09;3.70;;;3.40;;
1691;SDS011;843;52.054;8.552;2022-08-19T08:42:45;6.20;;;3.67;;
1691;SDS011;843;52.054;8.552;2022-08-19T08:45:17;7.07;;;3.90;;
1691;SDS011;843;52.054;8.552;2022-08-19T08:47:45;3.87;;;3.10;;
1691;SDS011;843;52.054;8.552;2022-08-19T08:50:20;6.37;;;3.80;;
1691;SDS011;843;52.054;8.552;2022-08-19T08:52:50;5.73;;;3.60;;
1691;SDS011;843;52.054;8.552;2022-08-19T08:55:20;4.50;;;4.10;;
1691;SDS011;843;52.054;8.552;2022-08-19T08:57:51;4.50;;;3.40;;
1691;SDS011;843;52.054;8.552;2022-08-19T09:00:21;8.30;;;3.57;;
1691;SDS011;843;52.054;8.552;2022-08-19T09:02:51;5.40;;;3.80;;
1691;SDS011;843;52.054;8.552;2022-08-19T09:05:18;4.40;;;3.97;;
1691;SDS011;843;52.054;8.552;2022-08-19T09:07:57;4.00;;;3.00;;
1691;SDS011;843;52.054;8.552;2022-08-19T09:10:29;5.30;;;2.93;;
1691;SDS011;843;52.054;8.552;2022-08-19T09:13:00;4.27;;;3.00;;
1691;SDS011;843;52.054;8.552;2022-08-19T09:15:34;3.43;;;3.13;;
1691;SDS011;843;52.054;8.552;2022-08-19T09:18:03;5.03;;;3.43;;
1691;SDS011;843;52.054;8.552;2022-08-19T09:20:31;5.90;;;3.10;;
1691;SDS011;843;52.054;8.552;2022-08-19T09:22:58;5.13;;;2.93;;
1691;SDS011;843;52.054;8.552;2022-08-19T09:25:26;3.50;;;3.13;;
1691;SDS011;843;52.054;8.552;2022-08-19T09:27:53;5.43;;;2.80;;
1691;SDS011;843;52.054;8.552;2022-08-19T09:30:23;3.50;;;3.20;;
1691;SDS011;843;52.054;8.552;2022-08-19T09:32:51;3.60;;;2.90;;
1691;SDS011;843;52.054;8.552;2022-08-19T09:35:18;4.37;;;3.20;;
1691;SDS011;843;52.054;8.552;2022-08-19T09:37:47;7.77;;;4.00;;
1691;SDS011;843;52.054;8.552;2022-08-19T09:40:14;4.47;;;4.07;;
1691;SDS011;843;52.054;8.552;2022-08-19T09:42:44;3.80;;;3.23;;
1691;SDS011;843;52.054;8.552;2022-08-19T09:45:11;3.30;;;2.93;;
1691;SDS011;843;52.054;8.552;2022-08-19T09:47:38;4.20;;;3.70;;
1691;SDS011;843;52.054;8.552;2022-08-19T09:50:06;5.00;;;3.03;;
1691;SDS011;843;52.054;8.552;2022-08-19T09:52:34;5.30;;;3.90;;
1691;SDS011;843;52.054;8.552;2022-08-19T09:55:02;4.87;;;4.10;;
1691;SDS011;843;52.054;8.552;2022-08-19T09:57:29;4.13;;;3.60;;
1691;SDS011;843;52.054;8.552;2022-08-19T09:59:57;5.10;;;2.70;;
1691;SDS011;843;52.054;8.552;2022-08-19T10:02:24;4.00;;;2.93;;
1691;SDS011;843;52.054;8.552;2022-08-19T10:04:51;5.60;;;3.50;;
1691;SDS011;843;52.054;8.552;2022-08-19T10:07:35;3.10;;;2.80;;
1691;SDS011;843;52.054;8.552;2022-08-19T10:10:02;4.57;;;4.07;;
1691;SDS011;843;52.054;8.552;2022-08-19T10:12:31;5.20;;;3.20;;
1691;SDS011;843;52.054;8.552;2022-08-19T10:14:59;2.60;;;2.40;;
1691;SDS011;843;52.054;8.552;2022-08-19T10:17:26;3.83;;;2.53;;
1691;SDS011;843;52.054;8.552;2022-08-19T10:19:53;4.93;;;2.77;;
1691;SDS011;843;52.054;8.552;2022-08-19T10:22:20;5.23;;;2.50;;
1691;SDS011;843;52.054;8.552;2022-08-19T10:24:47;3.23;;;2.87;;
1691;SDS011;843;52.054;8.552;2022-08-19T10:27:14;5.80;;;2.13;;
1691;SDS011;843;52.054;8.552;2022-08-19T10:29:41;4.10;;;2.13;;
1691;SDS011;843;52.054;8.552;2022-08-19T10:32:09;1.83;;;1.40;;
1691;SDS011;843;52.054;8.552;2022-08-19T10:34:36;1.63;;;1.53;;
1691;SDS011;843;52.054;8.552;2022-08-19T10:37:03;1.80;;;1.60;;
1691;SDS011;843;52.054;8.552;2022-08-19T10:39:31;3.47;;;1.80;;
1691;SDS011;843;52.054;8.552;2022-08-19T10:41:58;2.23;;;1.63;;
1691;SDS011;843;52.054;8.552;2022-08-19T10:44:25;1.70;;;1.60;;
1691;SDS011;843;52.054;8.552;2022-08-19T10:46:55;2.73;;;2.30;;
1691;SDS011;843;52.054;8.552;2022-08-19T10:49:23;2.47;;;2.00;;
1691;SDS011;843;52.054;8.552;2022-08-19T10:51:49;3.60;;;2.20;;
1691;SDS011;843;52.054;8.552;2022-08-19T10:54:34;2.70;;;2.23;;
1691;SDS011;843;52.054;8.552;2022-08-19T10:57:18;2.90;;;2.30;;
1691;SDS011;843;52.054;8.552;2022-08-19T10:59:44;4.00;;;2.30;;
1691;SDS011;843;52.054;8.552;2022-08-19T11:02:11;3.33;;;2.27;;
1691;SDS011;843;52.054;8.552;2022-08-19T11:04:39;3.60;;;2.23;;
1691;SDS011;843;52.054;8.552;2022-08-19T11:07:07;3.40;;;2.23;;
1691;SDS011;843;52.054;8.552;2022-08-19T11:09:37;2.07;;;1.87;;
1691;SDS011;843;52.054;8.552;2022-08-19T11:12:05;3.37;;;2.10;;
1691;SDS011;843;52.054;8.552;2022-08-19T11:14:33;3.83;;;2.43;;
1691;SDS011;843;52.054;8.552;2022-08-19T11:16:59;1.93;;;1.73;;
1691;SDS011;843;52.054;8.552;2022-08-19T11:19:26;3.10;;;2.00;;
1691;SDS011;843;52.054;8.552;2022-08-19T11:21:54;2.20;;;2.00;;
1691;SDS011;843;52.054;8.552;2022-08-19T11:24:21;2.43;;;2.10;;
1691;SDS011;843;52.054;8.552;2022-08-19T11:26:50;2.57;;;2.10;;
1691;SDS011;843;52.054;8.552;2022-08-19T11:29:21;3.83;;;2.13;;
1691;SDS011;843;52.054;8.552;2022-08-19T11:31:51;2.20;;;2.00;;
1691;SDS011;843;52.054;8.552;2022-08-19T11:34:19;3.30;;;2.00;;
1691;SDS011;843;52.054;8.552;2022-08-19T11:36:47;2.20;;;1.80;;
1691;SDS011;843;52.054;8.552;2022-08-19T11:39:17;2.10;;;1.90;;
1691;SDS011;843;52.054;8.552;2022-08-19T11:41:45;2.27;;;2.07;;
1691;SDS011;843;52.054;8.552;2022-08-19T11:44:12;3.43;;;2.20;;
1691;SDS011;843;52.054;8.552;2022-08-19T11:46:40;3.40;;;2.03;;
1691;SDS011;843;52.054;8.552;2022-08-19T11:49:10;3.23;;;2.20;;
1691;SDS011;843;52.054;8.552;2022-08-19T11:51:37;2.80;;;2.40;;
1691;SDS011;843;52.054;8.552;2022-08-19T11:54:05;3.90;;;2.30;;
1691;SDS011;843;52.054;8.552;2022-08-19T11:56:33;2.03;;;1.83;;
1691;SDS011;843;52.054;8.552;2022-08-19T11:59:00;3.13;;;2.23;;
1691;SDS011;843;52.054;8.552;2022-08-19T12:01:27;4.13;;;2.23;;
1691;SDS011;843;52.054;8.552;2022-08-19T12:03:54;3.13;;;2.50;;
1691;SDS011;843;52.054;8.552;2022-08-19T12:06:23;2.77;;;2.57;;
1691;SDS011;843;52.054;8.552;2022-08-19T12:08:53;2.50;;;2.27;;
1691;SDS011;843;52.054;8.552;2022-08-19T12:11:20;3.70;;;2.07;;
1691;SDS011;843;52.054;8.552;2022-08-19T12:13:48;3.13;;;2.63;;
1691;SDS011;843;52.054;8.552;2022-08-19T12:16:17;2.80;;;2.53;;
1691;SDS011;843;52.054;8.552;2022-08-19T12:18:45;4.30;;;3.00;;
1691;SDS011;843;52.054;8.552;2022-08-19T12:21:12;5.10;;;2.70;;
1691;SDS011;843;52.054;8.552;2022-08-19T12:23:39;4.13;;;2.93;;
1691;SDS011;843;52.054;8.552;2022-08-19T12:26:06;5.00;;;3.47;;
1691;SDS011;843;52.054;8.552;2022-08-19T12:28:35;4.07;;;2.90;;
1691;SDS011;843;52.054;8.552;2022-08-19T12:31:03;4.90;;;3.03;;
1691;SDS011;843;52.054;8.552;2022-08-19T12:33:30;3.57;;;3.00;;
1691;SDS011;843;52.054;8.552;2022-08-19T12:36:00;5.30;;;3.23;;
1691;SDS011;843;52.054;8.552;2022-08-19T12:38:28;3.27;;;2.97;;
1691;SDS011;843;52.054;8.552;2022-08-19T12:40:54;3.33;;;3.03;;
1691;SDS011;843;52.054;8.552;2022-08-19T12:43:21;4.50;;;3.30;;
1691;SDS011;843;52.054;8.552;2022-08-19T12:45:48;3.20;;;2.43;;
1691;SDS011;843;52.054;8.552;2022-08-19T12:48:16;3.30;;;3.00;;
1691;SDS011;843;52.054;8.552;2022-08-19T12:50:43;3.80;;;2.77;;
1691;SDS011;843;52.054;8.552;2022-08-19T12:53:11;4.20;;;3.00;;
1691;SDS011;843;52.054;8.552;2022-08-19T12:55:38;5.83;;;3.03;;
1691;SDS011;843;52.054;8.552;2022-08-19T12:58:06;2.90;;;2.60;;
1691;SDS011;843;52.054;8.552;2022-08-19T13:00:33;3.20;;;2.90;;
1691;SDS011;843;52.054;8.552;2022-08-19T13:02:59;3.00;;;2.70;;
1691;SDS011;843;52.054;8.552;2022-08-19T13:05:28;3.00;;;2.40;;
1691;SDS011;843;52.054;8.552;2022-08-19T13:07:57;3.93;;;3.33;;
1691;SDS011;843;52.054;8.552;2022-08-19T13:10:25;3.07;;;2.47;;
1691;SDS011;843;52.054;8.552;2022-08-19T13:12:54;3.43;;;3.10;;
1691;SDS011;843;52.054;8.552;2022-08-19T13:15:21;3.30;;;2.97;;
1691;SDS011;843;52.054;8.552;2022-08-19T13:17:49;3.00;;;2.63;;
1691;SDS011;843;52.054;8.552;2022-08-19T13:20:19;3.27;;;2.97;;
1691;SDS011;843;52.054;8.552;2022-08-19T13:22:48;3.33;;;2.80;;
1691;SDS011;843;52.054;8.552;2022-08-19T13:25:15;3.00;;;2.80;;
1691;SDS011;843;52.054;8.552;2022-08-19T13:27:44;3.87;;;3.00;;
1691;SDS011;843;52.054;8.552;2022-08-19T13:30:13;3.20;;;2.90;;
1691;SDS011;843;52.054;8.552;2022-08-19T13:32:59;2.80;;;2.60;;
1691;SDS011;843;52.054;8.552;2022-08-19T13:35:40;4.20;;;3.00;;
1691;SDS011;843;52.054;8.552;2022-08-19T13:38:09;2.43;;;2.23;;
1691;SDS011;843;52.054;8.552;2022-08-19T13:40:37;3.60;;;3.03;;
1691;SDS011;843;52.054;8.552;2022-08-19T13:43:04;6.63;;;2.93;;
1691;SDS011;843;52.054;8.552;2022-08-19T13:45:32;5.60;;;3.53;;
1691;SDS011;843;52.054;8.552;2022-08-19T13:47:59;3.50;;;3.20;;
1691;SDS011;843;52.054;8.552;2022-08-19T13:50:30;3.87;;;3.00;;
1691;SDS011;843;52.054;8.552;2022-08-19T13:52:57;4.20;;;2.60;;
1691;SDS011;843;52.054;8.552;2022-08-19T13:55:25;3.73;;;2.80;;
1691;SDS011;843;52.054;8.552;2022-08-19T13:57:53;2.90;;;2.50;;
1691;SDS011;843;52.054;8.552;2022-08-19T14:00:20;4.57;;;3.00;;
1691;SDS011;843;52.054;8.552;2022-08-19T14:02:50;3.23;;;2.93;;
1691;SDS011;843;52.054;8.552;2022-08-19T14:05:17;3.83;;;2.63;;
1691;SDS011;843;52.054;8.552;2022-08-19T14:07:45;4.27;;;2.80;;
1691;SDS011;843;52.054;8.552;2022-08-19T14:10:12;2.90;;;2.70;;
1691;SDS011;843;52.054;8.552;2022-08-19T14:12:41;3.40;;;3.10;;
1691;SDS011;843;52.054;8.552;2022-08-19T14:15:08;2.97;;;2.70;;
1691;SDS011;843;52.054;8.552;2022-08-19T14:17:37;3.43;;;3.00;;
1691;SDS011;843;52.054;8.552;2022-08-19T14:20:05;4.47;;;2.53;;
1691;SDS011;843;52.054;8.552;2022-08-19T14:22:34;3.10;;;2.80;;
1691;SDS011;843;52.054;8.552;2022-08-19T14:25:01;3.23;;;2.93;;
1691;SDS011;843;52.054;8.552;2022-08-19T14:27:28;4.00;;;2.70;;
1691;SDS011;843;52.054;8.552;2022-08-19T14:29:56;3.30;;;2.73;;
1691;SDS011;843;52.054;8.552;2022-08-19T14:32:22;3.90;;;2.50;;
1691;SDS011;843;52.054;8.552;2022-08-19T14:34:49;3.43;;;2.80;;
1691;SDS011;843;52.054;8.552;2022-08-19T14:37:17;3.00;;;2.80;;
1691;SDS011;843;52.054;8.552;2022-08-19T14:39:44;2.70;;;2.50;;
1691;SDS011;843;52.054;8.552;2022-08-19T14:42:11;2.80;;;2.20;;
1691;SDS011;843;52.054;8.552;2022-08-19T14:44:39;3.20;;;2.87;;
1691;SDS011;843;52.054;8.552;2022-08-19T14:47:09;2.53;;;2.33;;
1691;SDS011;843;52.054;8.552;2022-08-19T14:49:36;3.53;;;2.97;;
1691;SDS011;843;52.054;8.552;2022-08-19T14:52:04;2.40;;;2.20;;
1691;SDS011;843;52.054;8.552;2022-08-19T14:54:31;4.90;;;2.70;;
1691;SDS011;843;52.054;8.552;2022-08-19T14:56:58;3.00;;;2.70;;
1691;SDS011;843;52.054;8.552;2022-08-19T14:59:25;3.87;;;2.67;;
1691;SDS011;843;52.054;8.552;2022-08-19T15:01:51;3.33;;;2.60;;
1691;SDS011;843;52.054;8.552;2022-08-19T15:04:19;7.60;;;3.17;;
1691;SDS011;843;52.054;8.552;2022-08-19T15:06:46;4.30;;;3.33;;
1691;SDS011;843;52.054;8.552;2022-08-19T15:09:13;2.70;;;2.50;;
1691;SDS011;843;52.054;8.552;2022-08-19T15:11:39;4.47;;;2.90;;
1691;SDS011;843;52.054;8.552;2022-08-19T15:14:07;3.50;;;3.20;;
1691;SDS011;843;52.054;8.552;2022-08-19T15:16:35;3.30;;;2.87;;
1691;SDS011;843;52.054;8.552;2022-08-19T15:19:05;3.07;;;2.83;;
1691;SDS011;843;52.054;8.552;2022-08-19T15:21:34;3.70;;;2.77;;
1691;SDS011;843;52.054;8.552;2022-08-19T15:24:01;2.80;;;2.60;;
1691;SDS011;843;52.054;8.552;2022-08-19T15:26:30;2.93;;;2.63;;
1691;SDS011;843;52.054;8.552;2022-08-19T15:28:57;3.57;;;3.27;;
1691;SDS011;843;52.054;8.552;2022-08-19T15:31:24;4.07;;;2.83;;